sensor_id;sensor_type;location;lat;lon;timestamp;P1;durP1;ratioP1;P2;durP2;ratioP2
59314;SDS011;46521;50.160;20.802;2022-08-19T00:08:52;14.35;;;11.80;;
59314;SDS011;46521;50.160;20.802;2022-08-19T00:35:55;13.20;;;11.20;;
59314;SDS011;46521;50.160;20.802;2022-08-19T00:45:56;15.98;;;10.90;;
59314;SDS011;46521;50.160;20.802;2022-08-19T00:55:58;14.60;;;11.38;;
59314;SDS011;46521;50.160;20.802;2022-08-19T01:06:01;13.10;;;10.57;;
59314;SDS011;46521;50.160;20.802;2022-08-19T01:16:05;15.98;;;11.38;;
59314;SDS011;46521;50.160;20.802;2022-08-19T01:26:15;15.25;;;11.35;;
59314;SDS011;46521;50.160;20.802;2022-08-19T01:46:31;13.28;;;10.40;;
59314;SDS011;46521;50.160;20.802;2022-08-19T01:56:32;15.03;;;11.20;;
59314;SDS011;46521;50.160;20.802;2022-08-19T02:06:34;14.60;;;10.98;;
59314;SDS011;46521;50.160;20.802;2022-08-19T02:16:36;14.53;;;11.28;;
59314;SDS011;46521;50.160;20.802;2022-08-19T02:26:39;13.33;;;10.70;;
59314;SDS011;46521;50.160;20.802;2022-08-19T02:36:40;13.33;;;10.85;;
59314;SDS011;46521;50.160;20.802;2022-08-19T02:46:41;13.33;;;10.60;;
59314;SDS011;46521;50.160;20.802;2022-08-19T02:56:44;13.80;;;10.88;;
59314;SDS011;46521;50.160;20.802;2022-08-19T03:06:47;16.73;;;11.58;;
59314;SDS011;46521;50.160;20.802;2022-08-19T03:16:49;13.33;;;11.43;;
59314;SDS011;46521;50.160;20.802;2022-08-19T03:26:53;14.60;;;10.35;;
59314;SDS011;46521;50.160;20.802;2022-08-19T03:36:58;13.33;;;10.23;;
59314;SDS011;46521;50.160;20.802;2022-08-19T03:47:05;14.93;;;11.03;;
59314;SDS011;46521;50.160;20.802;2022-08-19T03:57:06;13.35;;;10.75;;
59314;SDS011;46521;50.160;20.802;2022-08-19T04:07:09;15.63;;;10.93;;
59314;SDS011;46521;50.160;20.802;2022-08-19T04:17:13;13.93;;;11.13;;
59314;SDS011;46521;50.160;20.802;2022-08-19T04:27:14;11.83;;;9.90;;
59314;SDS011;46521;50.160;20.802;2022-08-19T04:37:16;13.43;;;10.98;;
59314;SDS011;46521;50.160;20.802;2022-08-19T04:47:17;14.58;;;10.85;;
59314;SDS011;46521;50.160;20.802;2022-08-19T04:57:19;13.25;;;10.70;;
59314;SDS011;46521;50.160;20.802;2022-08-19T05:07:20;15.58;;;11.83;;
59314;SDS011;46521;50.160;20.802;2022-08-19T05:17:22;13.68;;;9.70;;
59314;SDS011;46521;50.160;20.802;2022-08-19T05:27:23;12.00;;;10.45;;
59314;SDS011;46521;50.160;20.802;2022-08-19T05:37:25;12.05;;;10.00;;
59314;SDS011;46521;50.160;20.802;2022-08-19T05:47:28;13.43;;;10.37;;
59314;SDS011;46521;50.160;20.802;2022-08-19T05:57:29;12.23;;;9.75;;
59314;SDS011;46521;50.160;20.802;2022-08-19T06:07:31;12.88;;;9.43;;
59314;SDS011;46521;50.160;20.802;2022-08-19T06:17:32;13.60;;;8.83;;
59314;SDS011;46521;50.160;20.802;2022-08-19T06:27:35;12.43;;;8.98;;
59314;SDS011;46521;50.160;20.802;2022-08-19T06:37:37;12.27;;;9.27;;
59314;SDS011;46521;50.160;20.802;2022-08-19T06:47:39;11.10;;;8.68;;
59314;SDS011;46521;50.160;20.802;2022-08-19T06:57:40;11.20;;;8.75;;
59314;SDS011;46521;50.160;20.802;2022-08-19T07:07:42;11.95;;;8.70;;
59314;SDS011;46521;50.160;20.802;2022-08-19T07:17:44;11.08;;;8.23;;
59314;SDS011;46521;50.160;20.802;2022-08-19T07:27:48;11.90;;;8.45;;
59314;SDS011;46521;50.160;20.802;2022-08-19T07:37:51;12.93;;;8.08;;
59314;SDS011;46521;50.160;20.802;2022-08-19T07:47:56;12.63;;;8.70;;
59314;SDS011;46521;50.160;20.802;2022-08-19T07:57:59;9.63;;;7.18;;
59314;SDS011;46521;50.160;20.802;2022-08-19T08:08:00;10.70;;;8.20;;
59314;SDS011;46521;50.160;20.802;2022-08-19T08:18:20;10.63;;;7.78;;
59314;SDS011;46521;50.160;20.802;2022-08-19T08:28:22;10.83;;;8.20;;
59314;SDS011;46521;50.160;20.802;2022-08-19T08:38:24;14.87;;;8.77;;
59314;SDS011;46521;50.160;20.802;2022-08-19T08:58:50;11.25;;;8.03;;
59314;SDS011;46521;50.160;20.802;2022-08-19T09:19:05;12.48;;;8.60;;
59314;SDS011;46521;50.160;20.802;2022-08-19T09:29:08;10.38;;;8.03;;
59314;SDS011;46521;50.160;20.802;2022-08-19T09:39:10;11.33;;;8.58;;
59314;SDS011;46521;50.160;20.802;2022-08-19T09:59:13;11.53;;;8.57;;
59314;SDS011;46521;50.160;20.802;2022-08-19T10:09:16;12.40;;;8.63;;
59314;SDS011;46521;50.160;20.802;2022-08-19T10:19:35;10.70;;;7.95;;
59314;SDS011;46521;50.160;20.802;2022-08-19T10:29:36;10.30;;;8.85;;
59314;SDS011;46521;50.160;20.802;2022-08-19T10:49:39;10.20;;;8.30;;
59314;SDS011;46521;50.160;20.802;2022-08-19T11:00:00;10.53;;;8.33;;
59314;SDS011;46521;50.160;20.802;2022-08-19T11:10:02;10.40;;;8.13;;
59314;SDS011;46521;50.160;20.802;2022-08-19T11:20:04;11.05;;;8.35;;
59314;SDS011;46521;50.160;20.802;2022-08-19T11:30:07;10.73;;;8.55;;
59314;SDS011;46521;50.160;20.802;2022-08-19T11:40:10;10.98;;;8.28;;
59314;SDS011;46521;50.160;20.802;2022-08-19T11:50:13;10.68;;;8.35;;
59314;SDS011;46521;50.160;20.802;2022-08-19T12:00:17;10.48;;;7.93;;
59314;SDS011;46521;50.160;20.802;2022-08-19T12:10:21;10.10;;;7.88;;
59314;SDS011;46521;50.160;20.802;2022-08-19T12:20:55;10.78;;;7.70;;
59314;SDS011;46521;50.160;20.802;2022-08-19T12:30:57;9.70;;;7.75;;
59314;SDS011;46521;50.160;20.802;2022-08-19T12:40:59;9.88;;;7.48;;
59314;SDS011;46521;50.160;20.802;2022-08-19T12:51:06;11.78;;;8.08;;
59314;SDS011;46521;50.160;20.802;2022-08-19T13:01:14;10.63;;;7.70;;
59314;SDS011;46521;50.160;20.802;2022-08-19T13:11:18;10.65;;;8.65;;
59314;SDS011;46521;50.160;20.802;2022-08-19T13:21:26;11.78;;;8.00;;
59314;SDS011;46521;50.160;20.802;2022-08-19T13:31:31;9.83;;;8.38;;
59314;SDS011;46521;50.160;20.802;2022-08-19T13:41:52;10.85;;;8.10;;
59314;SDS011;46521;50.160;20.802;2022-08-19T13:51:54;12.10;;;8.38;;
59314;SDS011;46521;50.160;20.802;2022-08-19T14:01:59;11.00;;;8.73;;
59314;SDS011;46521;50.160;20.802;2022-08-19T14:12:02;11.27;;;8.60;;
59314;SDS011;46521;50.160;20.802;2022-08-19T14:22:03;10.68;;;7.80;;
59314;SDS011;46521;50.160;20.802;2022-08-19T14:32:06;9.90;;;7.40;;
59314;SDS011;46521;50.160;20.802;2022-08-19T14:52:09;10.03;;;7.90;;
59314;SDS011;46521;50.160;20.802;2022-08-19T15:02:11;9.63;;;8.03;;
59314;SDS011;46521;50.160;20.802;2022-08-19T15:12:12;10.18;;;7.90;;
59314;SDS011;46521;50.160;20.802;2022-08-19T15:22:17;10.00;;;7.78;;
59314;SDS011;46521;50.160;20.802;2022-08-19T15:32:19;11.67;;;8.17;;
59314;SDS011;46521;50.160;20.802;2022-08-19T15:52:22;12.57;;;9.17;;
59314;SDS011;46521;50.160;20.802;2022-08-19T16:02:25;12.60;;;8.93;;
59314;SDS011;46521;50.160;20.802;2022-08-19T16:12:47;10.80;;;8.63;;
59314;SDS011;46521;50.160;20.802;2022-08-19T16:22:48;14.53;;;9.93;;
59314;SDS011;46521;50.160;20.802;2022-08-19T16:32:50;11.15;;;9.05;;
59314;SDS011;46521;50.160;20.802;2022-08-19T16:42:51;11.48;;;9.15;;
59314;SDS011;46521;50.160;20.802;2022-08-19T16:52:53;12.40;;;9.07;;
59314;SDS011;46521;50.160;20.802;2022-08-19T17:02:55;11.38;;;9.13;;
59314;SDS011;46521;50.160;20.802;2022-08-19T17:12:57;15.37;;;10.70;;
59314;SDS011;46521;50.160;20.802;2022-08-19T17:22:58;12.23;;;10.23;;
59314;SDS011;46521;50.160;20.802;2022-08-19T17:33:01;12.68;;;8.58;;
59314;SDS011;46521;50.160;20.802;2022-08-19T17:43:04;13.55;;;9.20;;
59314;SDS011;46521;50.160;20.802;2022-08-19T17:53:08;14.00;;;9.58;;
59314;SDS011;46521;50.160;20.802;2022-08-19T18:03:09;13.58;;;10.33;;
59314;SDS011;46521;50.160;20.802;2022-08-19T18:23:24;12.60;;;8.73;;
59314;SDS011;46521;50.160;20.802;2022-08-19T18:33:29;12.93;;;9.33;;
59314;SDS011;46521;50.160;20.802;2022-08-19T18:43:31;13.20;;;9.20;;
59314;SDS011;46521;50.160;20.802;2022-08-19T18:54:05;10.90;;;8.63;;
59314;SDS011;46521;50.160;20.802;2022-08-19T19:04:19;11.98;;;8.45;;
59314;SDS011;46521;50.160;20.802;2022-08-19T19:14:31;11.65;;;8.78;;
59314;SDS011;46521;50.160;20.802;2022-08-19T19:24:36;13.38;;;8.38;;
59314;SDS011;46521;50.160;20.802;2022-08-19T19:34:39;12.95;;;8.98;;
59314;SDS011;46521;50.160;20.802;2022-08-19T19:44:41;12.25;;;8.15;;
59314;SDS011;46521;50.160;20.802;2022-08-19T19:54:45;11.78;;;8.33;;
59314;SDS011;46521;50.160;20.802;2022-08-19T20:04:48;13.03;;;8.50;;
59314;SDS011;46521;50.160;20.802;2022-08-19T20:14:51;14.00;;;8.97;;
59314;SDS011;46521;50.160;20.802;2022-08-19T20:24:52;11.70;;;8.53;;
59314;SDS011;46521;50.160;20.802;2022-08-19T20:34:56;13.05;;;8.80;;
59314;SDS011;46521;50.160;20.802;2022-08-19T20:45:00;12.33;;;8.85;;
59314;SDS011;46521;50.160;20.802;2022-08-19T20:55:02;13.10;;;9.30;;
59314;SDS011;46521;50.160;20.802;2022-08-19T21:05:05;12.75;;;10.18;;
59314;SDS011;46521;50.160;20.802;2022-08-19T21:15:07;15.13;;;10.00;;
59314;SDS011;46521;50.160;20.802;2022-08-19T21:25:09;13.68;;;10.28;;
59314;SDS011;46521;50.160;20.802;2022-08-19T21:35:11;14.20;;;10.73;;
59314;SDS011;46521;50.160;20.802;2022-08-19T21:45:13;14.93;;;10.45;;
59314;SDS011;46521;50.160;20.802;2022-08-19T21:55:17;14.27;;;10.87;;
59314;SDS011;46521;50.160;20.802;2022-08-19T22:05:19;13.00;;;10.80;;
59314;SDS011;46521;50.160;20.802;2022-08-19T22:15:23;13.07;;;10.77;;
59314;SDS011;46521;50.160;20.802;2022-08-19T22:25:34;16.58;;;11.88;;
59314;SDS011;46521;50.160;20.802;2022-08-19T22:35:38;14.65;;;10.98;;
59314;SDS011;46521;50.160;20.802;2022-08-19T22:45:42;15.50;;;11.48;;
59314;SDS011;46521;50.160;20.802;2022-08-19T22:55:45;15.05;;;12.25;;
59314;SDS011;46521;50.160;20.802;2022-08-19T23:05:46;15.53;;;11.67;;
59314;SDS011;46521;50.160;20.802;2022-08-19T23:15:47;17.18;;;11.98;;
59314;SDS011;46521;50.160;20.802;2022-08-19T23:25:50;17.78;;;12.13;;
59314;SDS011;46521;50.160;20.802;2022-08-19T23:46:02;16.40;;;11.53;;
59314;SDS011;46521;50.160;20.802;2022-08-19T23:56:06;14.57;;;11.50;;
